Latest Weather Observations for Georgetown Airport

IDQ60801

Issued at 3:35 pm EST Friday 19 September 2014 (issued every 30 minutes, with the page automatically refreshed every 10 minutes)

About weather observations | Map of weather stations | Latest weather observations for QLD | Other Formats
Station Details ID: 030124 Name: GEORGETOWN AIRPORT Lat: -18.30 Lon: 143.53 Height: 301.77 m
Data from the previous 72 hours. | See also: Recent months at Georgetown Airport
Date/Time
EST
Temp
°C
App
Temp
°C
Dew
Point
Rel
Hum
%
Delta-T
°C
Wind Press
QNH
hPa
Press
MSL
hPa
Rain
since 9 am
mm
Dir
 
Spd
km/h
Gust
km/h
Spd
kts
Gust
kts
19/03:30pm 34.1 29.4 -4.8 8 17.9 ESE 11 26 6 14 1013.0 - 0.0
19/03:00pm 33.8 29.6 -3.5 9 17.5 NE 9 17 5 9 1013.4 1011.8 0.0
19/02:30pm 32.9 27.3 -2.7 10 16.8 SW 17 33 9 18 1013.9 - 0.0
19/02:00pm 32.8 28.7 -2.8 10 16.8 NNE 9 15 5 8 1014.5 - 0.0
19/01:30pm 33.6 29.2 -2.2 10 17.1 SE 11 30 6 16 1015.0 - 0.0
19/01:00pm 32.6 28.5 -2.9 10 16.7 WSW 9 22 5 12 1015.6 - 0.0
19/12:30pm 31.8 27.0 -2.3 11 16.1 S 13 28 7 15 1016.3 - 0.0
19/12:00pm 31.3 26.4 -0.4 13 15.4 NE 15 24 8 13 1016.8 1015.2 0.0
19/11:30am 30.3 25.8 -0.1 14 14.7 E 13 24 7 13 1017.5 - 0.0
19/11:00am 29.7 25.7 0.3 15 14.3 ENE 11 20 6 11 1018.3 - 0.0
19/10:30am 29.1 25.3 1.6 17 13.6 NE 11 19 6 10 1018.7 - 0.0
19/10:00am 28.5 25.2 2.7 19 13.0 NNE 9 17 5 9 1018.9 - 0.0
19/09:30am 27.6 23.9 2.6 20 12.5 ENE 11 17 6 9 1019.0 - 0.0
19/09:00am 26.8 23.6 3.3 22 11.8 E 9 13 5 7 1019.1 1017.5 0.0
19/08:30am 25.2 22.4 3.2 24 10.9 E 7 13 4 7 1019.0 - 0.0
19/08:00am 23.1 20.2 2.6 26 9.9 ESE 7 11 4 6 1018.8 - 0.0
19/07:30am 19.5 17.7 1.0 29 8.4 CALM 0 4 0 2 1018.6 - 0.0
19/07:00am 15.4 13.1 0.4 36 6.5 SSW 2 6 1 3 1018.1 - 0.0
19/06:30am 14.9 11.6 0.0 36 6.4 SSW 7 7 4 4 1017.4 - 0.0
19/06:00am 15.6 13.2 -0.2 34 6.8 S 2 6 1 3 1017.2 1015.6 0.0
19/05:30am 15.6 11.9 -0.2 34 6.8 SSW 9 13 5 7 1016.7 - 0.0
19/05:00am 15.4 11.4 0.4 36 6.5 SSW 11 13 6 7 1016.3 - 0.0
19/04:30am 13.7 10.5 -0.7 37 6.0 SE 6 7 3 4 1015.9 - 0.0
19/04:00am 14.7 12.6 -0.6 35 6.5 CALM 0 0 0 0 1016.0 - 0.0
19/03:30am 15.6 13.6 -0.2 34 6.8 CALM 0 0 0 0 1016.1 - 0.0
19/03:00am 14.5 11.2 -1.2 34 6.5 SE 6 13 3 7 1016.4 1014.8 0.0
19/02:30am 16.8 13.5 0.0 32 7.3 SSW 7 11 4 6 1016.4 - 0.0
19/02:00am 17.0 13.8 -0.2 31 7.5 S 6 9 3 5 1016.6 - 0.0
19/01:30am 17.0 13.8 -0.2 31 7.5 SSE 6 7 3 4 1016.7 - 0.0
19/01:00am 16.7 13.3 -0.9 30 7.5 S 7 9 4 5 1017.0 - 0.0
19/12:30am 18.5 15.2 0.2 29 8.1 ESE 7 11 4 6 1017.3 - 0.0
19/12:00am 19.0 15.8 -0.4 27 8.6 SSW 6 7 3 4 1017.2 1015.6 0.0
 
Date/Time
EST
Temp
°C
App
Temp
°C
Dew
Point
Rel
Hum
%
Delta-T
°C
Wind Press
QNH
hPa
Press
MSL
hPa
Rain
since 9 am
mm
Dir
 
Spd
km/h
Gust
km/h
Spd
kts
Gust
kts
18/11:30pm 21.2 17.8 -0.7 23 9.8 S 7 9 4 5 1017.3 - 0.0
18/11:00pm 23.1 19.7 -0.4 21 10.7 S 7 9 4 5 1017.3 - 0.0
18/10:30pm 23.9 20.1 -0.4 20 11.2 SSW 9 11 5 6 1017.1 - 0.0
18/10:00pm 25.4 22.0 -0.6 18 12.0 S 7 9 4 5 1017.0 - 0.0
18/09:30pm 25.7 21.9 -0.4 18 12.2 SSW 9 15 5 8 1016.6 - 0.0
18/09:00pm 25.7 21.5 -1.2 17 12.3 SW 11 13 6 7 1016.2 1014.5 0.0
18/08:30pm 26.4 22.1 -1.4 16 12.8 SSW 11 15 6 8 1015.7 - 0.0
18/08:00pm 27.2 23.0 -0.8 16 13.1 SSW 11 15 6 8 1015.2 - 0.0
18/07:30pm 27.6 23.3 -1.3 15 13.4 SW 11 15 6 8 1015.0 - 0.0
18/07:00pm 28.8 24.4 -2.3 13 14.3 SW 11 15 6 8 1014.6 - 0.0
18/06:30pm 29.7 25.3 -2.7 12 14.9 SW 11 15 6 8 1014.1 - 0.0
18/06:00pm 32.0 28.0 -2.1 11 16.2 S 9 15 5 8 1013.9 1012.3 0.0
18/05:30pm 32.9 26.9 -2.7 10 16.8 SSW 19 28 10 15 1013.6 - 0.0
18/05:00pm 33.2 28.4 -2.5 10 16.9 S 13 22 7 12 1013.5 - 0.0
18/04:30pm 34.1 29.6 -3.2 9 17.6 S 11 22 6 12 1013.5 - 0.0
18/04:00pm 33.5 28.9 -3.7 9 17.3 S 11 28 6 15 1013.5 - 0.0
18/03:30pm 34.3 29.8 -3.1 9 17.7 SSW 11 24 6 13 1013.6 - 0.0
18/03:00pm 34.0 29.5 -3.3 9 17.6 WSW 11 24 6 13 1013.8 1012.2 0.0
18/02:30pm 34.0 28.0 -1.9 10 17.3 SE 20 37 11 20 1014.3 - 0.0
18/02:00pm 33.4 28.3 -2.3 10 17.0 SSW 15 32 8 17 1015.0 - 0.0
18/01:30pm 33.4 27.9 -2.3 10 17.0 S 17 28 9 15 1015.6 - 0.0
18/01:00pm 32.5 26.9 -3.0 10 16.6 SSE 17 30 9 16 1016.2 - 0.0
18/12:30pm 32.9 27.3 -2.7 10 16.8 S 17 26 9 14 1016.6 - 0.0
18/12:00pm 31.7 26.9 -2.3 11 16.0 SE 13 20 7 11 1017.3 1015.7 0.0
18/11:30am 31.2 25.2 -2.7 11 15.8 SSE 19 30 10 16 1018.1 - 0.0
18/11:00am 30.2 25.4 -2.3 12 15.1 S 13 30 7 16 1018.6 - 0.0
18/10:30am 29.7 25.4 -1.6 13 14.7 ENE 11 17 6 9 1018.9 - 0.0
18/10:00am 28.5 24.7 -0.6 15 13.8 ESE 9 17 5 9 1019.4 - 0.0
18/09:30am 27.5 24.1 -0.5 16 13.2 ESE 7 13 4 7 1019.6 - 0.0
18/09:00am 26.3 23.6 0.1 18 12.3 NE 4 7 2 4 1019.6 1018.0 0.0
18/08:30am 24.1 21.1 1.7 23 10.7 SSW 7 11 4 6 1019.6 - 0.0
18/08:00am 21.9 19.7 3.1 29 9.1 S 4 7 2 4 1019.4 - 0.0
18/07:30am 17.6 16.2 3.5 39 6.7 CALM 0 0 0 0 1019.2 - 0.0
18/07:00am 13.5 10.9 3.3 50 4.6 SSW 6 7 3 4 1018.7 - 0.0
18/06:30am 11.6 9.9 2.1 52 4.1 CALM 0 0 0 0 1018.2 - 0.0
18/06:00am 12.8 11.2 2.4 49 4.6 CALM 0 0 0 0 1017.8 1016.3 0.0
18/05:30am 13.3 11.7 2.2 47 4.9 CALM 0 0 0 0 1017.5 - 0.0
18/05:00am 13.9 12.1 1.5 43 5.4 CALM 0 0 0 0 1017.2 - 0.0
18/04:30am 16.6 13.4 3.0 40 6.3 SSE 9 11 5 6 1016.9 - 0.0
18/04:00am 15.8 13.0 2.9 42 5.9 S 7 9 4 5 1016.9 - 0.0
18/03:30am 14.8 11.9 2.7 44 5.5 S 7 9 4 5 1016.8 - 0.0
18/03:00am 15.5 12.9 3.0 43 5.7 SSW 6 11 3 6 1016.9 1015.3 0.0
18/02:30am 16.4 13.7 2.8 40 6.3 SSW 6 7 3 4 1017.1 - 0.0
18/02:00am 17.9 14.7 3.0 37 7.0 SSW 9 11 5 6 1017.1 - 0.0
18/01:30am 18.6 15.4 3.3 36 7.3 SSW 9 11 5 6 1017.2 - 0.0
18/01:00am 17.5 14.6 1.5 34 7.3 SE 6 7 3 4 1017.3 - 0.0
18/12:30am 19.9 17.3 3.2 33 8.0 E 6 7 3 4 1017.2 - 0.0
18/12:00am 20.8 18.5 2.6 30 8.6 E 4 6 2 3 1017.2 1015.6 0.0
 
Date/Time
EST
Temp
°C
App
Temp
°C
Dew
Point
Rel
Hum
%
Delta-T
°C
Wind Press
QNH
hPa
Press
MSL
hPa
Rain
since 9 am
mm
Dir
 
Spd
km/h
Gust
km/h
Spd
kts
Gust
kts
17/11:30pm 22.8 20.2 3.4 28 9.5 ENE 6 9 3 5 1017.1 - 0.0
17/11:00pm 23.9 20.7 3.2 26 10.2 ENE 9 13 5 7 1017.0 - 0.0
17/10:30pm 25.1 20.9 3.7 25 10.7 E 15 22 8 12 1016.7 - 0.0
17/10:00pm 22.5 17.3 3.6 29 9.3 NE 20 26 11 14 1016.3 - 0.0
17/09:30pm 21.1 18.2 2.4 29 8.9 S 7 9 4 5 1015.7 - 0.0
17/09:00pm 21.5 18.7 2.2 28 9.1 SE 6 9 3 5 1015.3 1013.7 0.0
17/08:30pm 23.9 22.4 3.2 26 10.2 CALM 0 6 0 3 1014.9 - 0.0
17/08:00pm 23.9 21.0 2.7 25 10.3 E 7 11 4 6 1014.7 - 0.0
17/07:30pm 26.1 23.8 2.7 22 11.6 W 4 7 2 4 1014.1 - 0.0
17/07:00pm 27.5 24.5 1.8 19 12.6 W 7 9 4 5 1013.7 - 0.0
17/06:30pm 30.0 27.0 2.3 17 14.0 WSW 7 9 4 5 1013.4 - 0.0
17/06:00pm 31.9 27.8 2.1 15 15.1 SW 13 19 7 10 1013.1 1011.5 0.0
17/05:30pm 32.7 27.8 1.7 14 15.7 WSW 17 24 9 13 1013.0 - 0.0
17/05:00pm 33.6 29.4 1.4 13 16.3 SSW 13 22 7 12 1012.8 - 0.0
17/04:30pm 33.8 30.4 1.6 13 16.4 W 9 26 5 14 1012.7 - 0.0
17/04:00pm 33.6 29.5 2.4 14 16.1 SSW 13 20 7 11 1012.7 - 0.0
17/03:30pm 33.7 28.7 1.5 13 16.4 SW 17 28 9 15 1012.9 - 0.0
17/03:00pm 33.9 30.7 0.5 12 16.7 S 7 17 4 9 1013.3 1011.7 0.0
17/02:30pm 33.1 27.3 -0.1 12 16.4 S 20 32 11 17 1013.5 - 0.0
17/02:00pm 33.4 28.6 0.1 12 16.5 SSW 15 20 8 11 1014.1 - 0.0
17/01:30pm 33.0 27.6 -1.4 11 16.6 SSW 17 32 9 17 1014.6 - 0.0
17/01:00pm 32.5 27.9 1.6 14 15.6 ESE 15 26 8 14 1014.8 - 0.0
17/12:30pm 31.6 26.6 3.6 17 14.6 SSE 19 32 10 17 1015.3 - 0.0
17/12:00pm 31.2 28.5 5.6 20 13.7 ESE 9 17 5 9 1016.0 1014.4 0.0
17/11:30am 29.9 27.4 6.5 23 12.6 SE 9 17 5 9 1016.8 - 0.0
17/11:00am 28.4 25.9 6.5 25 11.7 SSW 9 17 5 9 1017.5 - 0.0
17/10:30am 27.4 25.6 7.8 29 10.7 NE 7 13 4 7 1018.0 - 0.0
17/10:00am 25.7 24.0 8.2 33 9.5 E 7 13 4 7 1018.3 - 0.0
17/09:30am 25.0 23.5 8.5 35 9.0 WSW 6 11 3 6 1018.4 - 0.0
17/09:00am 23.8 22.2 8.6 38 8.2 NE 7 13 4 7 1018.3 1016.7 0.0
17/08:30am 22.6 20.3 9.0 42 7.4 NE 11 15 6 8 1018.0 - 0.0
17/08:00am 21.6 20.0 10.1 48 6.3 E 9 15 5 8 1017.8 - 0.0
17/07:30am 19.8 18.6 10.2 54 5.2 E 7 11 4 6 1017.5 - 0.0
17/07:00am 15.5 15.0 8.0 61 3.8 CALM 0 0 0 0 1017.2 - 0.0
17/06:30am 14.1 12.7 7.4 64 3.3 NE 4 7 2 4 1016.9 - 0.0
17/06:00am 14.0 13.0 7.3 64 3.3 N 2 6 1 3 1016.7 1015.1 0.0
17/05:30am 15.3 13.8 8.5 64 3.5 NE 6 7 3 4 1016.1 - 0.0
17/05:00am 16.0 15.5 7.7 58 4.2 CALM 0 6 0 3 1015.8 - 0.0
17/04:30am 17.8 16.3 8.6 55 4.8 NE 6 7 3 4 1015.5 - 0.0
17/04:00am 18.8 16.9 9.0 53 5.2 NE 9 13 5 7 1015.4 - 0.0
17/03:30am 18.9 16.9 8.8 52 5.3 NE 9 13 5 7 1015.3 - 0.0
17/03:00am 19.2 17.6 8.8 51 5.5 NE 7 9 4 5 1015.5 1013.9 0.0
17/02:30am 20.4 19.1 9.3 49 6.0 NNE 6 7 3 4 1015.4 - 0.0
17/02:00am 21.2 19.1 9.8 48 6.2 NE 11 15 6 8 1015.4 - 0.0
17/01:30am 21.4 19.6 10.9 51 5.9 NE 11 13 6 7 1015.5 - 0.0
17/01:00am 21.2 19.7 10.7 51 5.8 E 9 11 5 6 1015.5 - 0.0
17/12:30am 22.2 20.4 11.0 49 6.3 ENE 11 17 6 9 1015.6 - 0.0
17/12:00am 23.0 21.2 10.8 46 6.8 E 11 17 6 9 1015.6 1014.0 0.0
 
Date/Time
EST
Temp
°C
App
Temp
°C
Dew
Point
Rel
Hum
%
Delta-T
°C
Wind Press
QNH
hPa
Press
MSL
hPa
Rain
since 9 am
mm
Dir
 
Spd
km/h
Gust
km/h
Spd
kts
Gust
kts
16/11:30pm 22.0 18.8 5.0 33 8.5 E 11 15 6 8 1015.6 - 0.0
16/11:00pm 20.7 17.6 3.4 32 8.3 SE 9 11 5 6 1015.2 - 0.0
16/10:30pm 20.6 17.8 3.3 32 8.3 SE 7 9 4 5 1014.9 - 0.0
16/10:00pm 20.4 17.8 3.2 32 8.2 SE 6 7 3 4 1014.8 - 0.0
16/09:30pm 20.8 18.0 3.1 31 8.5 ESE 7 9 4 5 1014.5 - 0.0
16/09:00pm 22.0 19.3 3.6 30 9.0 ESE 7 7 4 4 1014.3 1012.6 0.0
16/08:30pm 22.2 19.6 3.3 29 9.2 ESE 6 7 3 4 1014.0 - 0.0
16/08:00pm 23.7 21.1 3.1 26 10.1 E 6 7 3 4 1013.7 - 0.0
16/07:30pm 24.8 22.0 2.3 23 10.9 E 6 9 3 5 1013.3 - 0.0
16/07:00pm 26.9 24.0 2.7 21 12.0 ESE 7 9 4 5 1012.9 - 0.0
16/06:30pm 29.0 26.2 3.1 19 13.1 S 7 11 4 6 1012.5 - 0.0
16/06:00pm 30.3 27.0 2.5 17 14.1 SE 9 13 5 7 1012.2 1010.6 0.0
16/05:30pm 31.2 27.7 3.3 17 14.4 SSE 11 17 6 9 1012.0 - 0.0
16/05:00pm 31.6 29.1 3.6 17 14.6 NE 6 13 3 7 1011.8 - 0.0
16/04:30pm 31.5 28.0 3.5 17 14.5 SE 11 20 6 11 1011.9 - 0.0
16/04:00pm 31.4 26.4 3.4 17 14.5 ESE 19 26 10 14 1011.8 - 0.0

Other Formats:

Comma delimited format used in spreadsheet applications
http://www.bom.gov.au/fwo/IDQ60801/IDQ60801.94274.axf

JavaScript Object Notation format (JSON) in row-major order
http://www.bom.gov.au/fwo/IDQ60801/IDQ60801.94274.json